createdAt,value
2023-05-11T00:00:03.484Z,100276.50
2023-05-11T00:02:33.196Z,100274.00
2023-05-11T00:05:00.825Z,100276.81
2023-05-11T00:07:28.056Z,100278.69
2023-05-11T00:09:55.585Z,100278.97
2023-05-11T00:12:22.893Z,100272.25
2023-05-11T00:14:50.163Z,100268.41
2023-05-11T00:17:19.608Z,100269.44
2023-05-11T00:19:46.966Z,100269.44
2023-05-11T00:22:14.249Z,100265.22
2023-05-11T00:24:41.551Z,100270.41
2023-05-11T00:27:08.881Z,100274.25
2023-05-11T00:29:36.155Z,100260.78
2023-05-11T00:32:03.649Z,100260.41
2023-05-11T00:34:32.053Z,100258.03
2023-05-11T00:36:59.304Z,100252.34
2023-05-11T00:39:26.793Z,100266.31
2023-05-11T00:41:54.657Z,100262.47
2023-05-11T00:44:21.956Z,100267.53
2023-05-11T00:46:51.858Z,100262.38
2023-05-11T00:49:21.516Z,100262.31
2023-05-11T00:51:49.013Z,100256.03
2023-05-11T00:54:16.524Z,100257.47
2023-05-11T00:56:43.858Z,100248.69
2023-05-11T00:59:11.532Z,100256.66
2023-05-11T01:01:39.259Z,100252.81
2023-05-11T01:04:06.921Z,100252.13
2023-05-11T01:06:46.753Z,100255.72
2023-05-11T01:09:33.422Z,100251.66
2023-05-11T01:12:07.591Z,100251.53
2023-05-11T01:14:39.341Z,100246.41
2023-05-11T01:17:10.605Z,100254.81
2023-05-11T01:19:38.177Z,100251.59
2023-05-11T01:22:10.333Z,100251.44
2023-05-11T01:24:49.257Z,100253.97
2023-05-11T01:27:32.094Z,100254.13
2023-05-11T01:30:29.364Z,100258.19
2023-05-11T01:32:59.757Z,100255.34
2023-05-11T01:35:27.892Z,100257.47
2023-05-11T01:37:57.495Z,100254.97
2023-05-11T01:40:27.736Z,100246.09
2023-05-11T01:43:01.559Z,100247.09
2023-05-11T01:45:29.971Z,100246.41
2023-05-11T01:47:57.964Z,100250.06
2023-05-11T01:50:26.068Z,100246.25
2023-05-11T01:52:54.094Z,100244.41
2023-05-11T01:55:22.439Z,100249.31
2023-05-11T01:57:52.454Z,100249.38
2023-05-11T02:00:20.173Z,100252.81
2023-05-11T02:02:48.211Z,100248.53
2023-05-11T02:05:18.551Z,100248.53
2023-05-11T02:07:49.177Z,100241.22
2023-05-11T02:10:17.208Z,100248.06
2023-05-11T02:12:46.776Z,100247.91
2023-05-11T02:15:16.704Z,100253.19
2023-05-11T02:17:44.144Z,100249.06
2023-05-11T02:20:12.370Z,100246.41
2023-05-11T02:22:40.635Z,100244.25
2023-05-11T02:25:09.886Z,100248.53
2023-05-11T02:27:37.566Z,100246.69
2023-05-11T02:30:11.619Z,100248.81
2023-05-11T02:32:41.882Z,100243.78
2023-05-11T02:35:16.136Z,100246.84
2023-05-11T02:37:45.133Z,100243.50
2023-05-11T02:40:21.204Z,100241.09
2023-05-11T02:42:53.772Z,100241.97
2023-05-11T02:45:22.446Z,100241.00
2023-05-11T02:47:54.220Z,100240.09
2023-05-11T02:50:28.377Z,100232.47
2023-05-11T02:52:58.010Z,100226.34
2023-05-11T02:55:25.956Z,100232.63
2023-05-11T02:57:54.204Z,100234.75
2023-05-11T03:00:21.975Z,100228.34
2023-05-11T03:02:50.302Z,100229.78
2023-05-11T03:05:20.996Z,100226.22
2023-05-11T03:07:48.667Z,100224.34
2023-05-11T03:10:16.378Z,100225.13
2023-05-11T03:12:45.902Z,100219.16
2023-05-11T03:15:15.776Z,100215.81
2023-05-11T03:17:46.361Z,100217.56
2023-05-11T03:20:17.025Z,100206.94
2023-05-11T03:22:45.845Z,100211.28
2023-05-11T03:25:14.525Z,100208.38
2023-05-11T03:27:42.792Z,100210.53
2023-05-11T03:30:12.154Z,100207.38
2023-05-11T03:32:43.619Z,100211.97
2023-05-11T03:35:11.091Z,100201.91
2023-05-11T03:37:39.001Z,100210.28
2023-05-11T03:40:08.788Z,100216.19
2023-05-11T03:42:46.473Z,100199.13
2023-05-11T03:45:14.962Z,100202.56
2023-05-11T03:47:43.177Z,100195.75
2023-05-11T03:50:11.235Z,100197.44
2023-05-11T03:52:39.161Z,100193.03
2023-05-11T03:55:07.099Z,100196.53
2023-05-11T03:57:34.653Z,100195.56
2023-05-11T04:00:01.996Z,100189.34
2023-05-11T04:02:34.068Z,100198.91
2023-05-11T04:05:01.657Z,100184.28
2023-05-11T04:07:31.297Z,100191.19
2023-05-11T04:09:58.817Z,100187.69
2023-05-11T04:12:26.143Z,100202.22
2023-05-11T04:14:53.764Z,100197.75
2023-05-11T04:17:21.358Z,100202.97
2023-05-11T04:19:48.625Z,100201.09
2023-05-11T04:22:16.418Z,100202.78
2023-05-11T04:24:43.776Z,100196.31
2023-05-11T04:27:11.173Z,100202.97
2023-05-11T04:29:38.662Z,100203.72
2023-05-11T04:32:06.082Z,100198.97
2023-05-11T04:34:33.603Z,100197.75
2023-05-11T04:37:07.213Z,100191.94
2023-05-11T04:39:35.867Z,100198.97
2023-05-11T04:42:03.673Z,100202.97
2023-05-11T04:44:31.133Z,100210.06
2023-05-11T04:46:58.544Z,100218.25
2023-05-11T04:49:26.030Z,100217.56
2023-05-11T04:51:53.389Z,100219.94
2023-05-11T04:54:20.976Z,100216.25
2023-05-11T04:56:49.472Z,100223.44
2023-05-11T04:59:16.902Z,100214.91
2023-05-11T05:01:44.913Z,100224.31
2023-05-11T05:04:14.258Z,100218.13
2023-05-11T05:06:41.762Z,100217.78
2023-05-11T05:09:09.241Z,100219.63
2023-05-11T05:11:36.996Z,100220.22
2023-05-11T05:14:04.443Z,100221.00
2023-05-11T05:16:32.577Z,100215.34
2023-05-11T05:19:00.269Z,100219.03
2023-05-11T05:21:28.305Z,100212.66
2023-05-11T05:23:56.795Z,100214.44
2023-05-11T05:26:24.604Z,100221.09
2023-05-11T05:28:52.183Z,100232.47
2023-05-11T05:31:20.831Z,100220.69
2023-05-11T05:34:15.544Z,100218.72
2023-05-11T05:36:44.140Z,100223.00
2023-05-11T05:39:12.783Z,100222.78
2023-05-11T05:41:42.630Z,100215.66
2023-05-11T05:44:10.858Z,100222.00
2023-05-11T05:46:39.086Z,100227.25
2023-05-11T05:49:06.665Z,100221.69
2023-05-11T05:51:34.593Z,100218.00
2023-05-11T05:54:03.016Z,100223.44
2023-05-11T05:56:32.229Z,100218.25
2023-05-11T05:58:59.897Z,100224.81
2023-05-11T06:01:28.380Z,100221.91
2023-05-11T06:03:56.561Z,100221.47
2023-05-11T06:06:25.185Z,100219.78
2023-05-11T06:08:53.769Z,100227.66
2023-05-11T06:11:21.937Z,100225.97
2023-05-11T06:13:50.070Z,100232.03
2023-05-11T06:16:17.551Z,100220.56
2023-05-11T06:18:46.195Z,100219.00
2023-05-11T06:21:14.801Z,100214.94
2023-05-11T06:23:42.213Z,100207.38
2023-05-11T06:26:09.772Z,100210.81
2023-05-11T06:28:37.282Z,100215.50
2023-05-11T06:31:09.007Z,100214.41
2023-05-11T06:33:38.129Z,100216.53
2023-05-11T06:36:10.387Z,100217.97
2023-05-11T06:38:38.129Z,100219.75
2023-05-11T06:41:07.735Z,100212.56
2023-05-11T06:43:35.150Z,100217.75
2023-05-11T06:46:03.579Z,100215.75
2023-05-11T06:48:32.325Z,100218.78
2023-05-11T06:50:59.725Z,100216.78
2023-05-11T06:53:27.093Z,100215.56
2023-05-11T06:55:57.260Z,100220.66
2023-05-11T06:58:24.668Z,100217.09
2023-05-11T07:00:52.273Z,100216.47
2023-05-11T07:03:19.638Z,100214.50
2023-05-11T07:05:46.966Z,100224.84
2023-05-11T07:08:14.402Z,100225.75
2023-05-11T07:10:42.062Z,100233.00
2023-05-11T07:13:09.423Z,100228.19
2023-05-11T07:15:36.770Z,100227.09
2023-05-11T07:18:04.251Z,100231.56
2023-05-11T07:20:32.207Z,100237.53
2023-05-11T07:22:59.674Z,100229.13
2023-05-11T07:25:27.064Z,100230.97
2023-05-11T07:27:54.277Z,100230.78
2023-05-11T07:30:22.510Z,100232.22
2023-05-11T07:32:50.304Z,100235.09
2023-05-11T07:35:17.840Z,100227.91
2023-05-11T07:37:45.178Z,100228.63
2023-05-11T07:40:12.665Z,100242.56
2023-05-11T07:42:40.095Z,100232.22
2023-05-11T07:45:07.631Z,100239.38
2023-05-11T07:47:36.932Z,100240.03
2023-05-11T07:50:04.661Z,100236.69
2023-05-11T07:52:32.135Z,100234.66
2023-05-11T07:54:59.962Z,100242.72
2023-05-11T07:57:27.308Z,100237.28
2023-05-11T07:59:54.869Z,100242.41
2023-05-11T08:02:22.523Z,100234.44
2023-05-11T08:04:50.303Z,100235.94
2023-05-11T08:07:17.718Z,100241.91
2023-05-11T08:09:45.223Z,100236.53
2023-05-11T08:12:12.482Z,100235.00
2023-05-11T08:14:40.055Z,100230.66
2023-05-11T08:17:07.393Z,100244.59
2023-05-11T08:19:34.750Z,100240.22
2023-05-11T08:22:02.149Z,100241.56
2023-05-11T08:24:29.545Z,100239.38
2023-05-11T08:26:56.869Z,100247.13
2023-05-11T08:29:27.534Z,100233.59
2023-05-11T08:31:55.382Z,100240.38
2023-05-11T08:34:23.352Z,100243.50
2023-05-11T08:36:51.014Z,100234.34
2023-05-11T08:39:28.535Z,100245.75
2023-05-11T08:42:07.280Z,100244.44
2023-05-11T08:44:35.352Z,100244.91
2023-05-11T08:47:21.080Z,100243.88
2023-05-11T08:49:50.449Z,100250.34
2023-05-11T08:52:18.407Z,100253.41
2023-05-11T08:54:46.357Z,100251.63
2023-05-11T08:57:14.261Z,100252.97
2023-05-11T08:59:42.191Z,100245.56
2023-05-11T09:02:11.155Z,100255.16
2023-05-11T09:04:38.635Z,100255.47
2023-05-11T09:07:06.246Z,100253.25
2023-05-11T09:09:33.807Z,100251.03
2023-05-11T09:12:02.026Z,100253.47
2023-05-11T09:14:29.862Z,100246.81
2023-05-11T09:16:58.888Z,100258.78
2023-05-11T09:19:26.297Z,100253.44
2023-05-11T09:21:53.708Z,100247.88
2023-05-11T09:24:21.600Z,100251.03
2023-05-11T09:26:49.087Z,100248.09
2023-05-11T09:29:19.411Z,100252.19
2023-05-11T09:31:47.383Z,100243.09
2023-05-11T09:34:16.352Z,100245.84
2023-05-11T09:36:44.602Z,100246.81
2023-05-11T09:41:43.160Z,100241.03
2023-05-11T09:44:14.584Z,100239.00
2023-05-11T09:46:45.522Z,100249.25
2023-05-11T09:49:13.086Z,100249.44
2023-05-11T09:51:40.936Z,100248.28
2023-05-11T09:54:18.941Z,100244.03
2023-05-11T09:57:00.442Z,100245.75
2023-05-11T09:59:38.637Z,100245.91
2023-05-11T10:02:22.941Z,100249.88
2023-05-11T10:04:51.135Z,100248.72
2023-05-11T10:07:25.194Z,100245.69
2023-05-11T10:09:56.997Z,100251.81
2023-05-11T10:12:25.890Z,100243.56
2023-05-11T10:14:55.556Z,100250.47
2023-05-11T10:17:23.259Z,100250.28
2023-05-11T10:19:51.219Z,100249.25
2023-05-11T10:22:18.744Z,100245.19
2023-05-11T10:24:46.777Z,100246.69
2023-05-11T10:27:14.428Z,100242.97
2023-05-11T10:29:43.785Z,100250.59
2023-05-11T10:32:12.064Z,100249.69
2023-05-11T10:34:40.026Z,100246.59
2023-05-11T10:37:08.461Z,100245.03
2023-05-11T10:39:42.869Z,100248.28
2023-05-11T10:42:28.672Z,100241.84
2023-05-11T10:45:01.676Z,100243.06
2023-05-11T10:47:48.113Z,100238.31
2023-05-11T10:50:34.464Z,100238.97
2023-05-11T10:53:15.036Z,100235.53
2023-05-11T10:55:43.331Z,100232.91
2023-05-11T10:58:16.864Z,100231.78
2023-05-11T11:01:03.052Z,100232.91
2023-05-11T11:03:30.833Z,100232.72
2023-05-11T11:06:00.617Z,100224.78
2023-05-11T11:08:28.656Z,100233.28
2023-05-11T11:10:56.387Z,100236.81
2023-05-11T11:13:24.626Z,100234.03
2023-05-11T11:15:54.849Z,100235.22
2023-05-11T11:18:25.153Z,100237.00
2023-05-11T11:20:53.766Z,100237.94
2023-05-11T11:23:39.675Z,100226.47
2023-05-11T11:26:07.821Z,100232.91
2023-05-11T11:28:53.808Z,100239.22
2023-05-11T11:31:31.896Z,100223.38
2023-05-11T11:34:19.247Z,100227.66
2023-05-11T11:36:55.574Z,100227.50
2023-05-11T11:39:23.055Z,100235.69
2023-05-11T11:42:01.435Z,100234.09
2023-05-11T11:44:28.843Z,100228.78
2023-05-11T11:47:11.761Z,100234.41
2023-05-11T11:49:39.888Z,100236.63
2023-05-11T11:52:11.239Z,100231.41
2023-05-11T11:54:40.010Z,100232.72
2023-05-11T11:57:26.183Z,100229.00
2023-05-11T11:59:53.751Z,100225.06
2023-05-11T12:02:21.182Z,100229.00
2023-05-11T12:04:57.881Z,100227.00
2023-05-11T12:07:27.318Z,100236.16
2023-05-11T12:09:56.071Z,100231.22
2023-05-11T12:12:26.155Z,100227.13
2023-05-11T12:14:53.474Z,100231.41
2023-05-11T12:17:25.287Z,100230.84
2023-05-11T12:19:52.864Z,100223.59
2023-05-11T12:22:24.413Z,100225.63
2023-05-11T12:24:55.183Z,100222.91
2023-05-11T12:27:24.361Z,100219.66
2023-05-11T12:29:52.143Z,100226.38
2023-05-11T12:32:27.604Z,100218.72
2023-05-11T12:35:01.958Z,100215.19
2023-05-11T12:37:32.966Z,100223.97
2023-05-11T12:40:00.546Z,100220.03
2023-05-11T12:42:28.195Z,100215.91
2023-05-11T12:44:56.103Z,100209.44
2023-05-11T12:47:23.867Z,100207.75
2023-05-11T12:49:51.374Z,100207.06
2023-05-11T12:52:18.850Z,100203.81
2023-05-11T12:54:51.849Z,100197.69
2023-05-11T12:57:24.931Z,100199.38
2023-05-11T13:00:12.189Z,100201.88
2023-05-11T13:02:50.324Z,100210.97
2023-05-11T13:05:19.708Z,100213.38
2023-05-11T13:07:48.693Z,100205.84
2023-05-11T13:10:16.883Z,100193.84
2023-05-11T13:12:51.926Z,100199.88
2023-05-11T13:15:20.643Z,100198.53
2023-05-11T13:17:55.530Z,100191.13
2023-05-11T13:20:27.665Z,100190.00
2023-05-11T13:23:05.813Z,100186.94
2023-05-11T13:25:34.063Z,100182.91
2023-05-11T13:28:01.840Z,100183.03
2023-05-11T13:30:29.448Z,100190.88
2023-05-11T13:32:56.845Z,100189.63
2023-05-11T13:35:25.366Z,100187.94
2023-05-11T13:37:52.774Z,100196.50
2023-05-11T13:40:20.984Z,100193.59
2023-05-11T13:42:48.324Z,100196.13
2023-05-11T13:45:16.071Z,100192.38
2023-05-11T13:47:45.523Z,100186.72
2023-05-11T13:50:15.990Z,100190.63
2023-05-11T13:52:43.850Z,100188.63
2023-05-11T13:55:11.220Z,100191.50
2023-05-11T13:57:38.791Z,100188.41
2023-05-11T14:00:07.102Z,100180.94
2023-05-11T14:02:41.424Z,100184.47
2023-05-11T14:05:09.261Z,100185.94
2023-05-11T14:07:47.007Z,100187.59
2023-05-11T14:10:17.117Z,100189.28
2023-05-11T14:12:44.586Z,100187.81
2023-05-11T14:15:12.100Z,100186.72
2023-05-11T14:17:42.726Z,100177.41
2023-05-11T14:20:11.409Z,100182.78
2023-05-11T14:22:39.320Z,100178.22
2023-05-11T14:25:07.121Z,100175.88
2023-05-11T14:27:34.628Z,100172.13
2023-05-11T14:30:02.158Z,100168.78
2023-05-11T14:32:29.941Z,100173.81
2023-05-11T14:34:57.305Z,100172.13
2023-05-11T14:37:24.820Z,100177.13
2023-05-11T14:39:52.452Z,100177.56
2023-05-11T14:42:19.908Z,100181.69
2023-05-11T14:44:48.471Z,100174.56
2023-05-11T14:47:16.071Z,100169.75
2023-05-11T14:49:43.394Z,100173.09
2023-05-11T14:52:10.897Z,100175.00
2023-05-11T14:54:38.551Z,100180.94
2023-05-11T14:57:06.226Z,100185.25
2023-05-11T14:59:47.714Z,100182.13
2023-05-11T15:02:26.237Z,100177.38
2023-05-11T15:04:53.783Z,100181.97
2023-05-11T15:07:21.360Z,100184.25
2023-05-11T15:09:49.814Z,100188.09
2023-05-11T15:12:17.307Z,100187.34
2023-05-11T15:14:44.612Z,100191.88
2023-05-11T15:17:12.106Z,100183.69
2023-05-11T15:19:39.507Z,100187.06
2023-05-11T15:22:06.954Z,100189.53
2023-05-11T15:24:34.461Z,100196.16
2023-05-11T15:27:02.502Z,100188.31
2023-05-11T15:29:29.980Z,100189.91
2023-05-11T15:31:57.539Z,100192.34
2023-05-11T15:34:25.185Z,100187.22
2023-05-11T15:36:52.668Z,100189.16
2023-05-11T15:39:20.715Z,100179.25
2023-05-11T15:41:48.156Z,100183.34
2023-05-11T15:44:15.559Z,100182.63
2023-05-11T15:46:42.870Z,100188.88
2023-05-11T15:49:10.472Z,100179.25
2023-05-11T15:51:38.160Z,100193.06
2023-05-11T15:54:05.651Z,100185.94
2023-05-11T15:56:33.410Z,100186.81
2023-05-11T15:59:00.993Z,100184.31
2023-05-11T16:01:28.609Z,100182.06
2023-05-11T16:03:57.246Z,100185.06
2023-05-11T16:06:24.783Z,100185.28
2023-05-11T16:08:53.549Z,100191.59
2023-05-11T16:11:22.347Z,100190.09
2023-05-11T16:13:49.963Z,100188.81
2023-05-11T16:16:17.326Z,100196.56
2023-05-11T16:18:47.395Z,100194.50
2023-05-11T16:21:17.420Z,100197.47
2023-05-11T16:23:44.860Z,100193.84
2023-05-11T16:26:12.323Z,100189.22
2023-05-11T16:28:41.312Z,100197.97
2023-05-11T16:31:09.530Z,100201.16
2023-05-11T16:33:39.897Z,100206.53
2023-05-11T16:36:11.426Z,100194.25
2023-05-11T16:38:38.988Z,100205.81
2023-05-11T16:41:06.369Z,100203.41
2023-05-11T16:43:33.815Z,100205.81
2023-05-11T16:46:01.583Z,100200.03
2023-05-11T16:48:29.075Z,100214.88
2023-05-11T16:53:44.960Z,100206.13
2023-05-11T16:56:13.616Z,100215.91
2023-05-11T16:58:41.147Z,100215.72
2023-05-11T17:01:08.596Z,100227.84
2023-05-11T17:03:35.966Z,100223.63
2023-05-11T17:06:03.563Z,100223.44
2023-05-11T17:08:30.792Z,100228.59
2023-05-11T17:10:58.382Z,100220.41
2023-05-11T17:13:25.612Z,100227.22
2023-05-11T17:15:56.306Z,100217.41
2023-05-11T17:18:24.811Z,100226.16
2023-05-11T17:20:53.347Z,100223.63
2023-05-11T17:23:20.747Z,100228.22
2023-05-11T17:25:48.479Z,100226.34
2023-05-11T17:28:16.167Z,100224.50
2023-05-11T17:30:48.769Z,100221.53
2023-05-11T17:33:17.238Z,100227.28
2023-05-11T17:35:44.678Z,100228.03
2023-05-11T17:38:12.041Z,100235.50
2023-05-11T17:40:39.320Z,100230.66
2023-05-11T17:43:07.060Z,100247.16
2023-05-11T17:45:34.440Z,100255.28
2023-05-11T17:48:27.310Z,100254.34
2023-05-11T17:50:54.924Z,100250.41
2023-05-11T17:53:23.487Z,100259.41
2023-05-11T17:55:52.981Z,100259.13
2023-05-11T17:58:20.310Z,100258.44
2023-05-11T18:00:49.075Z,100264.44
2023-05-11T18:03:24.493Z,100252.69
2023-05-11T18:05:52.482Z,100264.34
2023-05-11T18:08:19.744Z,100265.72
2023-05-11T18:10:47.109Z,100269.06
2023-05-11T18:13:17.099Z,100267.38
2023-05-11T18:15:45.092Z,100264.97
2023-05-11T18:18:12.957Z,100262.53
2023-05-11T18:20:40.277Z,100258.06
2023-05-11T18:23:07.453Z,100266.06
2023-05-11T18:25:34.758Z,100270.47
2023-05-11T18:28:09.985Z,100273.16
2023-05-11T18:30:39.925Z,100269.59
2023-05-11T18:33:07.168Z,100271.47
2023-05-11T18:35:34.459Z,100273.16
2023-05-11T18:38:04.181Z,100273.34
2023-05-11T18:40:31.527Z,100275.00
2023-05-11T18:42:58.760Z,100280.25
2023-05-11T18:45:30.060Z,100279.31
2023-05-11T18:47:57.497Z,100280.06
2023-05-11T18:50:25.591Z,100280.25
2023-05-11T18:52:53.176Z,100283.81
2023-05-11T18:55:20.521Z,100287.34
2023-05-11T18:57:47.708Z,100290.03
2023-05-11T19:00:16.316Z,100285.47
2023-05-11T19:02:57.527Z,100291.69
2023-05-11T19:05:33.572Z,100298.25
2023-05-11T19:08:00.907Z,100295.84
2023-05-11T19:10:28.217Z,100300.50
2023-05-11T19:12:55.627Z,100300.84
2023-05-11T19:15:23.109Z,100302.69
2023-05-11T19:17:51.176Z,100306.69
2023-05-11T19:20:18.638Z,100311.75
2023-05-11T19:22:46.057Z,100309.44
2023-05-11T19:25:13.393Z,100311.44
2023-05-11T19:27:40.783Z,100312.97
2023-05-11T19:30:09.592Z,100315.16
2023-05-11T19:32:36.869Z,100320.56
2023-05-11T19:35:05.083Z,100321.47
2023-05-11T19:37:32.400Z,100323.56
2023-05-11T19:40:16.034Z,100331.91
2023-05-11T19:42:47.165Z,100325.59
2023-05-11T19:45:15.047Z,100336.38
2023-05-11T19:47:42.458Z,100338.03
2023-05-11T19:50:11.068Z,100332.19
2023-05-11T19:52:38.934Z,100341.00
2023-05-11T19:55:06.901Z,100340.75
2023-05-11T19:57:37.585Z,100339.00
2023-05-11T20:00:05.928Z,100339.00
2023-05-11T20:02:34.037Z,100345.31
2023-05-11T20:05:02.451Z,100347.50
2023-05-11T20:07:32.107Z,100349.19
2023-05-11T20:10:00.942Z,100356.09
2023-05-11T20:12:28.604Z,100350.28
2023-05-11T20:14:56.100Z,100358.84
2023-05-11T20:17:24.395Z,100353.06
2023-05-11T20:19:51.830Z,100359.78
2023-05-11T20:22:19.473Z,100364.84
2023-05-11T20:24:47.334Z,100371.75
2023-05-11T20:27:14.787Z,100360.38
2023-05-11T20:29:42.314Z,100369.03
2023-05-11T20:32:09.606Z,100373.41
2023-05-11T20:34:36.952Z,100373.22
2023-05-11T20:37:04.540Z,100365.25
2023-05-11T20:39:31.965Z,100371.56
2023-05-11T20:41:59.962Z,100365.59
2023-05-11T20:44:27.413Z,100360.97
2023-05-11T20:46:54.760Z,100369.53
2023-05-11T20:49:37.637Z,100369.53
2023-05-11T20:52:09.263Z,100376.97
2023-05-11T20:54:36.628Z,100368.38
2023-05-11T20:57:04.524Z,100364.84
2023-05-11T21:02:03.031Z,100359.47
2023-05-11T21:04:31.572Z,100361.47
2023-05-11T21:06:59.984Z,100360.63
2023-05-11T21:09:27.242Z,100360.81
2023-05-11T21:11:54.535Z,100367.84
2023-05-11T21:14:22.017Z,100358.19
2023-05-11T21:16:49.773Z,100357.09
2023-05-11T21:19:18.450Z,100362.28
2023-05-11T21:21:48.548Z,100353.91
2023-05-11T21:24:16.166Z,100353.03
2023-05-11T21:26:44.239Z,100357.44
2023-05-11T21:29:13.201Z,100352.22
2023-05-11T21:31:40.561Z,100357.44
2023-05-11T21:34:07.830Z,100359.22
2023-05-11T21:36:35.289Z,100357.25
2023-05-11T21:39:04.768Z,100357.44
2023-05-11T21:41:32.083Z,100362.47
2023-05-11T21:44:00.047Z,100354.56
2023-05-11T21:46:27.685Z,100355.41
2023-05-11T21:48:55.052Z,100358.59
2023-05-11T21:51:22.565Z,100360.13
2023-05-11T21:53:50.264Z,100362.16
2023-05-11T21:56:17.468Z,100363.16
2023-05-11T21:58:44.766Z,100364.00
2023-05-11T22:01:12.337Z,100371.72
2023-05-11T22:03:39.782Z,100374.94
2023-05-11T22:06:07.648Z,100369.38
2023-05-11T22:08:35.203Z,100371.31
2023-05-11T22:11:02.424Z,100375.28
2023-05-11T22:13:29.692Z,100369.28
2023-05-11T22:15:57.001Z,100375.09
2023-05-11T22:18:27.454Z,100377.63
2023-05-11T22:20:54.797Z,100371.75
2023-05-11T22:23:23.644Z,100371.88
2023-05-11T22:25:50.994Z,100365.16
2023-05-11T22:28:18.309Z,100371.88
2023-05-11T22:30:45.585Z,100371.88
2023-05-11T22:33:12.898Z,100376.19
2023-05-11T22:35:40.321Z,100373.56
2023-05-11T22:38:07.801Z,100379.56
2023-05-11T22:40:35.033Z,100382.00
2023-05-11T22:43:03.314Z,100376.78
2023-05-11T22:45:30.611Z,100378.78
2023-05-11T22:47:58.030Z,100380.81
2023-05-11T22:50:25.422Z,100377.09
2023-05-11T22:52:52.735Z,100376.63
2023-05-11T22:55:20.033Z,100379.97
2023-05-11T22:57:47.367Z,100382.84
2023-05-11T23:00:14.752Z,100373.41
2023-05-11T23:02:43.040Z,100379.47
2023-05-11T23:05:10.382Z,100388.22
2023-05-11T23:07:38.091Z,100382.00
2023-05-11T23:10:05.561Z,100379.31
2023-05-11T23:12:33.054Z,100382.19
2023-05-11T23:15:00.312Z,100377.44
2023-05-11T23:17:27.739Z,100381.94
2023-05-11T23:19:55.121Z,100390.56
2023-05-11T23:22:22.396Z,100392.59
2023-05-11T23:24:49.884Z,100391.75
2023-05-11T23:27:17.329Z,100379.97
2023-05-11T23:29:44.819Z,100382.59
2023-05-11T23:32:12.071Z,100389.75
2023-05-11T23:34:39.458Z,100390.22
2023-05-11T23:37:07.425Z,100393.75
2023-05-11T23:39:34.809Z,100392.09
2023-05-11T23:42:02.224Z,100392.25
2023-05-11T23:44:29.636Z,100390.41
2023-05-11T23:46:56.928Z,100383.31
2023-05-11T23:49:24.466Z,100386.03
2023-05-11T23:51:52.636Z,100385.38
2023-05-11T23:54:20.069Z,100378.28
2023-05-11T23:56:47.655Z,100385.66
2023-05-11T23:59:15.199Z,100381.06
